sensor_id;sensor_type;location;lat;lon;timestamp;P1;durP1;ratioP1;P2;durP2;ratioP2
62459;SDS011;48510;39.364;-9.378;2022-07-22T00:01:27;26.52;;;10.20;;
62459;SDS011;48510;39.364;-9.378;2022-07-22T00:03:28;29.10;;;10.20;;
62459;SDS011;48510;39.364;-9.378;2022-07-22T00:05:29;34.00;;;11.50;;
62459;SDS011;48510;39.364;-9.378;2022-07-22T00:07:30;37.47;;;10.73;;
62459;SDS011;48510;39.364;-9.378;2022-07-22T00:09:30;27.05;;;9.88;;
62459;SDS011;48510;39.364;-9.378;2022-07-22T00:11:32;38.20;;;10.73;;
62459;SDS011;48510;39.364;-9.378;2022-07-22T00:13:33;34.58;;;11.23;;
62459;SDS011;48510;39.364;-9.378;2022-07-22T00:15:34;27.92;;;9.95;;
62459;SDS011;48510;39.364;-9.378;2022-07-22T00:17:35;22.88;;;10.05;;
62459;SDS011;48510;39.364;-9.378;2022-07-22T00:19:38;27.17;;;9.60;;
62459;SDS011;48510;39.364;-9.378;2022-07-22T00:21:39;24.88;;;9.55;;
62459;SDS011;48510;39.364;-9.378;2022-07-22T00:23:40;24.90;;;10.18;;
62459;SDS011;48510;39.364;-9.378;2022-07-22T00:25:41;31.13;;;10.07;;
62459;SDS011;48510;39.364;-9.378;2022-07-22T00:27:41;23.65;;;9.38;;
62459;SDS011;48510;39.364;-9.378;2022-07-22T00:29:42;26.92;;;9.90;;
62459;SDS011;48510;39.364;-9.378;2022-07-22T00:31:43;21.88;;;9.25;;
62459;SDS011;48510;39.364;-9.378;2022-07-22T00:33:44;23.88;;;10.40;;
62459;SDS011;48510;39.364;-9.378;2022-07-22T00:35:45;27.95;;;9.85;;
62459;SDS011;48510;39.364;-9.378;2022-07-22T00:37:45;28.17;;;9.95;;
62459;SDS011;48510;39.364;-9.378;2022-07-22T00:39:47;28.52;;;10.23;;
62459;SDS011;48510;39.364;-9.378;2022-07-22T00:41:51;29.33;;;9.88;;
62459;SDS011;48510;39.364;-9.378;2022-07-22T00:43:52;31.00;;;10.20;;
62459;SDS011;48510;39.364;-9.378;2022-07-22T00:45:55;25.63;;;10.27;;
62459;SDS011;48510;39.364;-9.378;2022-07-22T00:47:56;31.40;;;10.88;;
62459;SDS011;48510;39.364;-9.378;2022-07-22T00:49:57;28.95;;;10.40;;
62459;SDS011;48510;39.364;-9.378;2022-07-22T00:51:57;30.42;;;9.82;;
62459;SDS011;48510;39.364;-9.378;2022-07-22T00:53:59;30.73;;;10.15;;
62459;SDS011;48510;39.364;-9.378;2022-07-22T00:56:01;25.50;;;8.80;;
62459;SDS011;48510;39.364;-9.378;2022-07-22T00:58:03;30.05;;;10.00;;
62459;SDS011;48510;39.364;-9.378;2022-07-22T01:00:05;31.33;;;9.38;;
62459;SDS011;48510;39.364;-9.378;2022-07-22T01:02:08;28.15;;;9.60;;
62459;SDS011;48510;39.364;-9.378;2022-07-22T01:04:09;26.83;;;8.93;;
62459;SDS011;48510;39.364;-9.378;2022-07-22T01:06:10;30.60;;;9.88;;
62459;SDS011;48510;39.364;-9.378;2022-07-22T01:08:11;30.27;;;9.63;;
62459;SDS011;48510;39.364;-9.378;2022-07-22T01:10:12;34.58;;;10.10;;
62459;SDS011;48510;39.364;-9.378;2022-07-22T01:12:14;34.28;;;10.45;;
62459;SDS011;48510;39.364;-9.378;2022-07-22T01:14:16;33.33;;;9.90;;
62459;SDS011;48510;39.364;-9.378;2022-07-22T01:16:17;33.95;;;10.68;;
62459;SDS011;48510;39.364;-9.378;2022-07-22T01:18:18;30.75;;;9.82;;
62459;SDS011;48510;39.364;-9.378;2022-07-22T01:20:19;27.73;;;9.63;;
62459;SDS011;48510;39.364;-9.378;2022-07-22T01:22:20;25.70;;;9.15;;
62459;SDS011;48510;39.364;-9.378;2022-07-22T01:24:21;23.70;;;8.23;;
62459;SDS011;48510;39.364;-9.378;2022-07-22T01:26:23;22.15;;;8.15;;
62459;SDS011;48510;39.364;-9.378;2022-07-22T01:28:24;22.45;;;8.85;;
62459;SDS011;48510;39.364;-9.378;2022-07-22T01:30:25;27.98;;;8.90;;
62459;SDS011;48510;39.364;-9.378;2022-07-22T01:32:26;23.50;;;8.75;;
62459;SDS011;48510;39.364;-9.378;2022-07-22T01:34:27;23.88;;;7.85;;
62459;SDS011;48510;39.364;-9.378;2022-07-22T01:36:28;31.27;;;8.82;;
62459;SDS011;48510;39.364;-9.378;2022-07-22T01:38:29;29.35;;;9.80;;
62459;SDS011;48510;39.364;-9.378;2022-07-22T01:40:30;32.00;;;9.68;;
62459;SDS011;48510;39.364;-9.378;2022-07-22T01:42:32;32.05;;;9.50;;
62459;SDS011;48510;39.364;-9.378;2022-07-22T01:44:32;42.47;;;11.45;;
62459;SDS011;48510;39.364;-9.378;2022-07-22T01:46:33;35.08;;;10.15;;
62459;SDS011;48510;39.364;-9.378;2022-07-22T01:48:35;30.27;;;10.02;;
62459;SDS011;48510;39.364;-9.378;2022-07-22T01:50:36;36.22;;;10.30;;
62459;SDS011;48510;39.364;-9.378;2022-07-22T01:52:38;39.47;;;11.00;;
62459;SDS011;48510;39.364;-9.378;2022-07-22T01:54:39;24.05;;;9.55;;
62459;SDS011;48510;39.364;-9.378;2022-07-22T01:56:40;23.33;;;8.68;;
62459;SDS011;48510;39.364;-9.378;2022-07-22T01:58:41;33.78;;;9.45;;
62459;SDS011;48510;39.364;-9.378;2022-07-22T02:00:43;35.08;;;9.95;;
62459;SDS011;48510;39.364;-9.378;2022-07-22T02:02:44;32.05;;;9.95;;
62459;SDS011;48510;39.364;-9.378;2022-07-22T02:04:45;33.42;;;9.98;;
62459;SDS011;48510;39.364;-9.378;2022-07-22T02:06:46;21.98;;;8.98;;
62459;SDS011;48510;39.364;-9.378;2022-07-22T02:08:47;34.35;;;10.43;;
62459;SDS011;48510;39.364;-9.378;2022-07-22T02:10:50;38.97;;;10.55;;
62459;SDS011;48510;39.364;-9.378;2022-07-22T02:12:51;33.70;;;10.45;;
62459;SDS011;48510;39.364;-9.378;2022-07-22T02:14:52;28.85;;;9.45;;
62459;SDS011;48510;39.364;-9.378;2022-07-22T02:16:54;30.15;;;8.93;;
62459;SDS011;48510;39.364;-9.378;2022-07-22T02:18:55;22.17;;;7.75;;
62459;SDS011;48510;39.364;-9.378;2022-07-22T02:20:56;30.58;;;8.90;;
62459;SDS011;48510;39.364;-9.378;2022-07-22T02:22:57;29.88;;;9.00;;
62459;SDS011;48510;39.364;-9.378;2022-07-22T02:24:57;27.92;;;9.18;;
62459;SDS011;48510;39.364;-9.378;2022-07-22T02:26:58;25.70;;;8.50;;
62459;SDS011;48510;39.364;-9.378;2022-07-22T02:28:59;32.45;;;9.20;;
62459;SDS011;48510;39.364;-9.378;2022-07-22T02:31:00;22.20;;;8.15;;
62459;SDS011;48510;39.364;-9.378;2022-07-22T02:33:01;32.58;;;9.00;;
62459;SDS011;48510;39.364;-9.378;2022-07-22T02:35:02;22.73;;;8.18;;
62459;SDS011;48510;39.364;-9.378;2022-07-22T02:37:03;32.97;;;9.70;;
62459;SDS011;48510;39.364;-9.378;2022-07-22T02:39:04;29.50;;;8.70;;
62459;SDS011;48510;39.364;-9.378;2022-07-22T02:41:06;32.45;;;9.23;;
62459;SDS011;48510;39.364;-9.378;2022-07-22T02:43:09;32.53;;;9.55;;
62459;SDS011;48510;39.364;-9.378;2022-07-22T02:45:10;34.95;;;10.32;;
62459;SDS011;48510;39.364;-9.378;2022-07-22T02:47:11;42.42;;;11.82;;
62459;SDS011;48510;39.364;-9.378;2022-07-22T02:49:12;32.05;;;9.55;;
62459;SDS011;48510;39.364;-9.378;2022-07-22T02:51:12;38.65;;;10.50;;
62459;SDS011;48510;39.364;-9.378;2022-07-22T02:53:14;31.10;;;10.30;;
62459;SDS011;48510;39.364;-9.378;2022-07-22T02:55:15;42.95;;;11.27;;
62459;SDS011;48510;39.364;-9.378;2022-07-22T02:57:16;25.75;;;9.27;;
62459;SDS011;48510;39.364;-9.378;2022-07-22T02:59:17;25.02;;;8.80;;
62459;SDS011;48510;39.364;-9.378;2022-07-22T03:01:18;29.50;;;9.18;;
62459;SDS011;48510;39.364;-9.378;2022-07-22T03:03:25;31.75;;;9.88;;
62459;SDS011;48510;39.364;-9.378;2022-07-22T03:05:27;35.33;;;10.45;;
62459;SDS011;48510;39.364;-9.378;2022-07-22T03:07:42;28.67;;;9.13;;
62459;SDS011;48510;39.364;-9.378;2022-07-22T03:09:44;34.53;;;9.63;;
62459;SDS011;48510;39.364;-9.378;2022-07-22T03:11:45;39.30;;;9.82;;
62459;SDS011;48510;39.364;-9.378;2022-07-22T03:13:48;35.03;;;10.57;;
62459;SDS011;48510;39.364;-9.378;2022-07-22T03:15:49;41.97;;;10.30;;
62459;SDS011;48510;39.364;-9.378;2022-07-22T03:17:51;36.22;;;9.70;;
62459;SDS011;48510;39.364;-9.378;2022-07-22T03:19:53;38.05;;;10.10;;
62459;SDS011;48510;39.364;-9.378;2022-07-22T03:21:54;38.67;;;9.18;;
62459;SDS011;48510;39.364;-9.378;2022-07-22T03:23:55;32.95;;;9.98;;
62459;SDS011;48510;39.364;-9.378;2022-07-22T03:25:57;34.15;;;9.13;;
62459;SDS011;48510;39.364;-9.378;2022-07-22T03:27:58;33.90;;;9.10;;
62459;SDS011;48510;39.364;-9.378;2022-07-22T03:29:59;32.15;;;9.18;;
62459;SDS011;48510;39.364;-9.378;2022-07-22T03:32:00;34.83;;;9.80;;
62459;SDS011;48510;39.364;-9.378;2022-07-22T03:34:27;25.90;;;7.57;;
62459;SDS011;48510;39.364;-9.378;2022-07-22T03:36:36;22.80;;;7.88;;
62459;SDS011;48510;39.364;-9.378;2022-07-22T03:38:37;24.02;;;8.35;;
62459;SDS011;48510;39.364;-9.378;2022-07-22T03:40:38;30.52;;;8.57;;
62459;SDS011;48510;39.364;-9.378;2022-07-22T03:42:39;31.77;;;9.13;;
62459;SDS011;48510;39.364;-9.378;2022-07-22T03:44:40;26.58;;;8.48;;
62459;SDS011;48510;39.364;-9.378;2022-07-22T03:46:41;24.75;;;7.90;;
62459;SDS011;48510;39.364;-9.378;2022-07-22T03:48:42;38.88;;;9.80;;
62459;SDS011;48510;39.364;-9.378;2022-07-22T03:50:43;29.80;;;8.95;;
62459;SDS011;48510;39.364;-9.378;2022-07-22T03:52:43;33.35;;;9.25;;
62459;SDS011;48510;39.364;-9.378;2022-07-22T03:54:45;33.55;;;9.50;;
62459;SDS011;48510;39.364;-9.378;2022-07-22T03:56:46;38.30;;;10.45;;
62459;SDS011;48510;39.364;-9.378;2022-07-22T03:58:48;33.45;;;9.38;;
62459;SDS011;48510;39.364;-9.378;2022-07-22T04:00:49;31.30;;;8.73;;
62459;SDS011;48510;39.364;-9.378;2022-07-22T04:02:50;31.55;;;9.23;;
62459;SDS011;48510;39.364;-9.378;2022-07-22T04:05:04;29.63;;;8.57;;
62459;SDS011;48510;39.364;-9.378;2022-07-22T04:07:06;34.28;;;8.43;;
62459;SDS011;48510;39.364;-9.378;2022-07-22T04:09:10;28.05;;;8.45;;
62459;SDS011;48510;39.364;-9.378;2022-07-22T04:11:11;27.67;;;8.05;;
62459;SDS011;48510;39.364;-9.378;2022-07-22T04:13:13;30.88;;;8.20;;
62459;SDS011;48510;39.364;-9.378;2022-07-22T04:15:23;36.65;;;9.27;;
62459;SDS011;48510;39.364;-9.378;2022-07-22T04:17:23;28.63;;;8.73;;
62459;SDS011;48510;39.364;-9.378;2022-07-22T04:19:24;28.13;;;7.65;;
62459;SDS011;48510;39.364;-9.378;2022-07-22T04:21:27;30.92;;;8.63;;
62459;SDS011;48510;39.364;-9.378;2022-07-22T04:23:32;24.75;;;7.80;;
62459;SDS011;48510;39.364;-9.378;2022-07-22T04:25:46;26.98;;;7.75;;
62459;SDS011;48510;39.364;-9.378;2022-07-22T04:27:47;26.65;;;8.05;;
62459;SDS011;48510;39.364;-9.378;2022-07-22T04:29:48;25.00;;;7.85;;
62459;SDS011;48510;39.364;-9.378;2022-07-22T04:31:49;25.27;;;8.60;;
62459;SDS011;48510;39.364;-9.378;2022-07-22T04:33:53;30.35;;;7.72;;
62459;SDS011;48510;39.364;-9.378;2022-07-22T04:35:53;26.10;;;7.90;;
62459;SDS011;48510;39.364;-9.378;2022-07-22T04:37:55;21.25;;;8.10;;
62459;SDS011;48510;39.364;-9.378;2022-07-22T04:39:57;29.05;;;8.77;;
62459;SDS011;48510;39.364;-9.378;2022-07-22T04:41:58;42.55;;;10.40;;
62459;SDS011;48510;39.364;-9.378;2022-07-22T04:44:02;38.40;;;9.93;;
62459;SDS011;48510;39.364;-9.378;2022-07-22T04:46:06;35.30;;;9.13;;
62459;SDS011;48510;39.364;-9.378;2022-07-22T04:48:09;31.80;;;8.90;;
62459;SDS011;48510;39.364;-9.378;2022-07-22T04:50:10;32.92;;;9.95;;
62459;SDS011;48510;39.364;-9.378;2022-07-22T04:52:12;37.22;;;10.20;;
62459;SDS011;48510;39.364;-9.378;2022-07-22T04:54:19;27.48;;;8.65;;
62459;SDS011;48510;39.364;-9.378;2022-07-22T04:56:20;20.05;;;7.88;;
62459;SDS011;48510;39.364;-9.378;2022-07-22T04:58:21;26.98;;;8.55;;
62459;SDS011;48510;39.364;-9.378;2022-07-22T05:00:22;25.17;;;8.23;;
62459;SDS011;48510;39.364;-9.378;2022-07-22T05:02:29;28.27;;;8.93;;
62459;SDS011;48510;39.364;-9.378;2022-07-22T05:04:30;25.58;;;9.32;;
62459;SDS011;48510;39.364;-9.378;2022-07-22T05:06:31;32.42;;;10.45;;
62459;SDS011;48510;39.364;-9.378;2022-07-22T05:08:32;33.70;;;10.27;;
62459;SDS011;48510;39.364;-9.378;2022-07-22T05:10:33;36.03;;;10.18;;
62459;SDS011;48510;39.364;-9.378;2022-07-22T05:12:34;30.83;;;9.45;;
62459;SDS011;48510;39.364;-9.378;2022-07-22T05:14:35;31.20;;;9.68;;
62459;SDS011;48510;39.364;-9.378;2022-07-22T05:16:36;31.95;;;9.90;;
62459;SDS011;48510;39.364;-9.378;2022-07-22T05:18:38;31.40;;;10.10;;
62459;SDS011;48510;39.364;-9.378;2022-07-22T05:20:41;26.23;;;9.40;;
62459;SDS011;48510;39.364;-9.378;2022-07-22T05:22:42;27.05;;;9.63;;
62459;SDS011;48510;39.364;-9.378;2022-07-22T05:24:49;30.25;;;9.65;;
62459;SDS011;48510;39.364;-9.378;2022-07-22T05:26:50;27.35;;;9.68;;
62459;SDS011;48510;39.364;-9.378;2022-07-22T05:28:51;25.25;;;9.80;;
62459;SDS011;48510;39.364;-9.378;2022-07-22T05:30:52;22.02;;;9.88;;
62459;SDS011;48510;39.364;-9.378;2022-07-22T05:32:54;23.98;;;9.45;;
62459;SDS011;48510;39.364;-9.378;2022-07-22T05:35:15;23.98;;;9.23;;
62459;SDS011;48510;39.364;-9.378;2022-07-22T05:37:16;25.15;;;9.00;;
62459;SDS011;48510;39.364;-9.378;2022-07-22T05:39:17;23.92;;;10.07;;
62459;SDS011;48510;39.364;-9.378;2022-07-22T05:41:19;23.45;;;9.55;;
62459;SDS011;48510;39.364;-9.378;2022-07-22T05:43:19;27.60;;;9.65;;
62459;SDS011;48510;39.364;-9.378;2022-07-22T05:45:20;29.17;;;9.57;;
62459;SDS011;48510;39.364;-9.378;2022-07-22T05:47:21;26.00;;;9.75;;
62459;SDS011;48510;39.364;-9.378;2022-07-22T05:49:23;22.77;;;9.98;;
62459;SDS011;48510;39.364;-9.378;2022-07-22T05:51:32;18.35;;;9.50;;
62459;SDS011;48510;39.364;-9.378;2022-07-22T05:53:34;21.42;;;9.57;;
62459;SDS011;48510;39.364;-9.378;2022-07-22T05:55:35;33.53;;;10.20;;
62459;SDS011;48510;39.364;-9.378;2022-07-22T05:57:36;28.23;;;10.60;;
62459;SDS011;48510;39.364;-9.378;2022-07-22T05:59:37;27.30;;;10.52;;
62459;SDS011;48510;39.364;-9.378;2022-07-22T06:01:38;31.95;;;10.65;;
62459;SDS011;48510;39.364;-9.378;2022-07-22T06:03:56;26.58;;;10.10;;
62459;SDS011;48510;39.364;-9.378;2022-07-22T06:05:57;25.90;;;9.18;;
62459;SDS011;48510;39.364;-9.378;2022-07-22T06:07:58;27.10;;;10.45;;
62459;SDS011;48510;39.364;-9.378;2022-07-22T06:10:08;32.00;;;11.25;;
62459;SDS011;48510;39.364;-9.378;2022-07-22T06:12:09;25.35;;;10.52;;
62459;SDS011;48510;39.364;-9.378;2022-07-22T06:14:11;25.38;;;11.43;;
62459;SDS011;48510;39.364;-9.378;2022-07-22T06:16:12;24.80;;;10.73;;
62459;SDS011;48510;39.364;-9.378;2022-07-22T06:18:15;28.50;;;11.30;;
62459;SDS011;48510;39.364;-9.378;2022-07-22T06:20:17;26.95;;;11.25;;
62459;SDS011;48510;39.364;-9.378;2022-07-22T06:22:18;23.98;;;10.23;;
62459;SDS011;48510;39.364;-9.378;2022-07-22T06:24:19;28.67;;;11.85;;
62459;SDS011;48510;39.364;-9.378;2022-07-22T06:26:20;32.75;;;11.75;;
62459;SDS011;48510;39.364;-9.378;2022-07-22T06:28:20;31.80;;;11.80;;
62459;SDS011;48510;39.364;-9.378;2022-07-22T06:30:21;33.90;;;12.18;;
62459;SDS011;48510;39.364;-9.378;2022-07-22T06:32:22;33.03;;;11.50;;
62459;SDS011;48510;39.364;-9.378;2022-07-22T06:34:24;34.03;;;12.57;;
62459;SDS011;48510;39.364;-9.378;2022-07-22T06:36:35;34.10;;;11.68;;
62459;SDS011;48510;39.364;-9.378;2022-07-22T06:38:36;28.27;;;11.60;;
62459;SDS011;48510;39.364;-9.378;2022-07-22T06:40:49;28.58;;;11.52;;
62459;SDS011;48510;39.364;-9.378;2022-07-22T06:43:08;27.40;;;12.18;;
62459;SDS011;48510;39.364;-9.378;2022-07-22T06:45:32;26.05;;;10.93;;
62459;SDS011;48510;39.364;-9.378;2022-07-22T06:47:39;28.08;;;12.45;;
62459;SDS011;48510;39.364;-9.378;2022-07-22T06:49:43;36.03;;;12.70;;
62459;SDS011;48510;39.364;-9.378;2022-07-22T06:51:44;36.65;;;13.18;;
62459;SDS011;48510;39.364;-9.378;2022-07-22T06:53:45;31.88;;;13.18;;
62459;SDS011;48510;39.364;-9.378;2022-07-22T06:55:47;36.33;;;12.98;;
62459;SDS011;48510;39.364;-9.378;2022-07-22T06:57:48;29.33;;;12.30;;
62459;SDS011;48510;39.364;-9.378;2022-07-22T06:59:50;32.63;;;13.00;;
62459;SDS011;48510;39.364;-9.378;2022-07-22T07:01:51;33.88;;;13.18;;
62459;SDS011;48510;39.364;-9.378;2022-07-22T07:03:53;30.48;;;12.48;;
62459;SDS011;48510;39.364;-9.378;2022-07-22T07:05:54;28.38;;;12.75;;
62459;SDS011;48510;39.364;-9.378;2022-07-22T07:07:56;31.83;;;13.07;;
62459;SDS011;48510;39.364;-9.378;2022-07-22T07:09:57;34.67;;;13.02;;
62459;SDS011;48510;39.364;-9.378;2022-07-22T07:12:11;33.33;;;13.35;;
62459;SDS011;48510;39.364;-9.378;2022-07-22T07:14:30;30.40;;;12.90;;
62459;SDS011;48510;39.364;-9.378;2022-07-22T07:16:31;35.20;;;13.43;;
62459;SDS011;48510;39.364;-9.378;2022-07-22T07:18:32;36.33;;;13.98;;
62459;SDS011;48510;39.364;-9.378;2022-07-22T07:20:33;31.63;;;13.13;;
62459;SDS011;48510;39.364;-9.378;2022-07-22T07:22:35;25.15;;;12.50;;
62459;SDS011;48510;39.364;-9.378;2022-07-22T07:24:36;24.58;;;11.70;;
62459;SDS011;48510;39.364;-9.378;2022-07-22T07:26:37;26.58;;;12.23;;
62459;SDS011;48510;39.364;-9.378;2022-07-22T07:28:38;28.52;;;12.20;;
62459;SDS011;48510;39.364;-9.378;2022-07-22T07:30:48;27.05;;;12.45;;
62459;SDS011;48510;39.364;-9.378;2022-07-22T07:32:49;34.35;;;12.63;;
62459;SDS011;48510;39.364;-9.378;2022-07-22T07:34:50;35.58;;;13.20;;
62459;SDS011;48510;39.364;-9.378;2022-07-22T07:36:52;30.02;;;12.50;;
62459;SDS011;48510;39.364;-9.378;2022-07-22T07:38:53;31.98;;;13.15;;
62459;SDS011;48510;39.364;-9.378;2022-07-22T07:40:54;28.10;;;12.63;;
62459;SDS011;48510;39.364;-9.378;2022-07-22T07:42:55;29.13;;;12.60;;
62459;SDS011;48510;39.364;-9.378;2022-07-22T07:44:57;30.67;;;12.82;;
62459;SDS011;48510;39.364;-9.378;2022-07-22T07:46:57;34.05;;;12.52;;
62459;SDS011;48510;39.364;-9.378;2022-07-22T07:48:59;26.85;;;12.70;;
62459;SDS011;48510;39.364;-9.378;2022-07-22T07:51:01;30.90;;;12.27;;
62459;SDS011;48510;39.364;-9.378;2022-07-22T07:53:02;30.27;;;11.85;;
62459;SDS011;48510;39.364;-9.378;2022-07-22T07:55:04;31.85;;;11.85;;
62459;SDS011;48510;39.364;-9.378;2022-07-22T07:57:09;32.40;;;11.55;;
62459;SDS011;48510;39.364;-9.378;2022-07-22T07:59:12;26.08;;;11.50;;
62459;SDS011;48510;39.364;-9.378;2022-07-22T08:01:14;23.92;;;11.10;;
62459;SDS011;48510;39.364;-9.378;2022-07-22T08:03:15;23.00;;;10.32;;
62459;SDS011;48510;39.364;-9.378;2022-07-22T08:05:16;24.67;;;10.15;;
62459;SDS011;48510;39.364;-9.378;2022-07-22T08:07:19;25.35;;;10.82;;
62459;SDS011;48510;39.364;-9.378;2022-07-22T08:09:21;26.80;;;11.77;;
62459;SDS011;48510;39.364;-9.378;2022-07-22T08:11:22;31.83;;;12.10;;
62459;SDS011;48510;39.364;-9.378;2022-07-22T08:13:42;28.10;;;11.18;;
62459;SDS011;48510;39.364;-9.378;2022-07-22T08:16:04;29.30;;;11.73;;
62459;SDS011;48510;39.364;-9.378;2022-07-22T08:18:06;25.05;;;11.18;;
62459;SDS011;48510;39.364;-9.378;2022-07-22T08:20:07;35.22;;;12.88;;
62459;SDS011;48510;39.364;-9.378;2022-07-22T08:22:08;26.77;;;11.10;;
62459;SDS011;48510;39.364;-9.378;2022-07-22T08:24:09;34.13;;;12.90;;
62459;SDS011;48510;39.364;-9.378;2022-07-22T08:26:10;26.80;;;11.45;;
62459;SDS011;48510;39.364;-9.378;2022-07-22T08:28:11;34.13;;;12.98;;
62459;SDS011;48510;39.364;-9.378;2022-07-22T08:30:12;32.22;;;12.70;;
62459;SDS011;48510;39.364;-9.378;2022-07-22T08:32:13;36.03;;;13.40;;
62459;SDS011;48510;39.364;-9.378;2022-07-22T08:34:14;32.85;;;13.32;;
62459;SDS011;48510;39.364;-9.378;2022-07-22T08:36:15;27.42;;;13.35;;
62459;SDS011;48510;39.364;-9.378;2022-07-22T08:38:16;24.13;;;12.23;;
62459;SDS011;48510;39.364;-9.378;2022-07-22T08:40:18;25.25;;;12.15;;
62459;SDS011;48510;39.364;-9.378;2022-07-22T08:42:21;26.17;;;12.07;;
62459;SDS011;48510;39.364;-9.378;2022-07-22T08:44:22;26.50;;;11.77;;
62459;SDS011;48510;39.364;-9.378;2022-07-22T08:46:24;28.77;;;12.32;;
62459;SDS011;48510;39.364;-9.378;2022-07-22T08:49:05;34.95;;;12.48;;
62459;SDS011;48510;39.364;-9.378;2022-07-22T08:51:29;34.65;;;12.95;;
62459;SDS011;48510;39.364;-9.378;2022-07-22T08:53:47;32.15;;;12.07;;
62459;SDS011;48510;39.364;-9.378;2022-07-22T08:55:48;34.00;;;11.57;;
62459;SDS011;48510;39.364;-9.378;2022-07-22T08:57:50;33.45;;;11.50;;
62459;SDS011;48510;39.364;-9.378;2022-07-22T08:59:52;31.10;;;12.00;;
62459;SDS011;48510;39.364;-9.378;2022-07-22T09:02:05;33.53;;;12.02;;
62459;SDS011;48510;39.364;-9.378;2022-07-22T09:04:10;32.35;;;12.02;;
62459;SDS011;48510;39.364;-9.378;2022-07-22T09:06:12;33.42;;;11.48;;
62459;SDS011;48510;39.364;-9.378;2022-07-22T09:08:13;33.60;;;12.48;;
62459;SDS011;48510;39.364;-9.378;2022-07-22T09:10:31;33.22;;;12.48;;
62459;SDS011;48510;39.364;-9.378;2022-07-22T09:15:14;29.35;;;11.90;;
62459;SDS011;48510;39.364;-9.378;2022-07-22T09:17:30;34.13;;;12.98;;
62459;SDS011;48510;39.364;-9.378;2022-07-22T09:19:58;30.73;;;12.65;;
62459;SDS011;48510;39.364;-9.378;2022-07-22T09:22:08;37.40;;;12.98;;
62459;SDS011;48510;39.364;-9.378;2022-07-22T09:24:35;32.65;;;13.10;;
62459;SDS011;48510;39.364;-9.378;2022-07-22T09:26:54;37.90;;;13.35;;
62459;SDS011;48510;39.364;-9.378;2022-07-22T09:29:06;40.88;;;14.00;;
62459;SDS011;48510;39.364;-9.378;2022-07-22T09:31:07;36.10;;;12.85;;
62459;SDS011;48510;39.364;-9.378;2022-07-22T09:33:23;34.78;;;13.18;;
62459;SDS011;48510;39.364;-9.378;2022-07-22T09:35:29;35.45;;;12.95;;
62459;SDS011;48510;39.364;-9.378;2022-07-22T09:37:30;30.88;;;12.45;;
62459;SDS011;48510;39.364;-9.378;2022-07-22T09:39:32;31.00;;;12.52;;
62459;SDS011;48510;39.364;-9.378;2022-07-22T09:41:35;31.98;;;11.98;;
62459;SDS011;48510;39.364;-9.378;2022-07-22T09:43:56;29.25;;;12.02;;
62459;SDS011;48510;39.364;-9.378;2022-07-22T09:45:57;32.83;;;11.93;;
62459;SDS011;48510;39.364;-9.378;2022-07-22T09:48:18;28.88;;;11.52;;
62459;SDS011;48510;39.364;-9.378;2022-07-22T09:50:43;29.08;;;11.82;;
62459;SDS011;48510;39.364;-9.378;2022-07-22T09:52:54;26.55;;;12.32;;
62459;SDS011;48510;39.364;-9.378;2022-07-22T09:55:01;29.60;;;12.32;;
62459;SDS011;48510;39.364;-9.378;2022-07-22T09:57:02;25.27;;;11.82;;
62459;SDS011;48510;39.364;-9.378;2022-07-22T09:59:03;31.83;;;12.40;;
62459;SDS011;48510;39.364;-9.378;2022-07-22T10:01:12;23.13;;;11.95;;
62459;SDS011;48510;39.364;-9.378;2022-07-22T10:03:26;28.40;;;12.27;;
62459;SDS011;48510;39.364;-9.378;2022-07-22T10:05:40;33.60;;;11.95;;
62459;SDS011;48510;39.364;-9.378;2022-07-22T10:07:43;33.05;;;12.02;;
62459;SDS011;48510;39.364;-9.378;2022-07-22T10:09:46;32.35;;;12.13;;
62459;SDS011;48510;39.364;-9.378;2022-07-22T10:11:47;32.92;;;12.10;;
62459;SDS011;48510;39.364;-9.378;2022-07-22T10:13:51;28.40;;;12.23;;
62459;SDS011;48510;39.364;-9.378;2022-07-22T10:15:53;38.38;;;13.10;;
62459;SDS011;48510;39.364;-9.378;2022-07-22T10:17:58;35.85;;;12.05;;
62459;SDS011;48510;39.364;-9.378;2022-07-22T10:20:01;27.15;;;11.82;;
62459;SDS011;48510;39.364;-9.378;2022-07-22T10:22:04;35.05;;;13.38;;
62459;SDS011;48510;39.364;-9.378;2022-07-22T10:24:12;34.60;;;11.85;;
62459;SDS011;48510;39.364;-9.378;2022-07-22T10:26:45;35.80;;;12.30;;
62459;SDS011;48510;39.364;-9.378;2022-07-22T10:28:48;34.25;;;13.32;;
62459;SDS011;48510;39.364;-9.378;2022-07-22T10:30:48;40.25;;;13.50;;
62459;SDS011;48510;39.364;-9.378;2022-07-22T10:40:29;27.98;;;11.98;;
62459;SDS011;48510;39.364;-9.378;2022-07-22T10:42:11;37.95;;;13.32;;
62459;SDS011;48510;39.364;-9.378;2022-07-22T10:44:12;35.17;;;13.35;;
62459;SDS011;48510;39.364;-9.378;2022-07-22T10:46:13;34.72;;;13.35;;
62459;SDS011;48510;39.364;-9.378;2022-07-22T10:52:35;29.15;;;13.50;;
62459;SDS011;48510;39.364;-9.378;2022-07-22T10:57:29;30.40;;;13.15;;
62459;SDS011;48510;39.364;-9.378;2022-07-22T10:59:31;32.10;;;13.37;;
62459;SDS011;48510;39.364;-9.378;2022-07-22T11:01:32;35.70;;;13.40;;
62459;SDS011;48510;39.364;-9.378;2022-07-22T11:03:33;36.30;;;14.57;;
62459;SDS011;48510;39.364;-9.378;2022-07-22T11:05:35;37.65;;;15.38;;
62459;SDS011;48510;39.364;-9.378;2022-07-22T11:07:42;33.92;;;13.80;;
62459;SDS011;48510;39.364;-9.378;2022-07-22T11:09:44;34.90;;;14.95;;
62459;SDS011;48510;39.364;-9.378;2022-07-22T11:11:46;35.40;;;15.30;;
62459;SDS011;48510;39.364;-9.378;2022-07-22T11:13:50;32.90;;;14.77;;
62459;SDS011;48510;39.364;-9.378;2022-07-22T11:15:51;34.78;;;15.88;;
62459;SDS011;48510;39.364;-9.378;2022-07-22T11:17:51;32.85;;;15.75;;
62459;SDS011;48510;39.364;-9.378;2022-07-22T11:19:57;35.15;;;17.25;;
62459;SDS011;48510;39.364;-9.378;2022-07-22T11:21:59;32.50;;;17.35;;
62459;SDS011;48510;39.364;-9.378;2022-07-22T11:24:05;34.20;;;18.00;;
62459;SDS011;48510;39.364;-9.378;2022-07-22T11:26:08;33.75;;;19.25;;
62459;SDS011;48510;39.364;-9.378;2022-07-22T11:28:13;32.47;;;18.38;;
62459;SDS011;48510;39.364;-9.378;2022-07-22T11:30:14;39.17;;;17.98;;
62459;SDS011;48510;39.364;-9.378;2022-07-22T11:32:15;31.25;;;17.95;;
62459;SDS011;48510;39.364;-9.378;2022-07-22T11:34:16;31.92;;;18.67;;
62459;SDS011;48510;39.364;-9.378;2022-07-22T11:36:17;31.27;;;18.38;;
62459;SDS011;48510;39.364;-9.378;2022-07-22T11:38:17;34.70;;;18.17;;
62459;SDS011;48510;39.364;-9.378;2022-07-22T11:40:18;30.73;;;17.65;;
62459;SDS011;48510;39.364;-9.378;2022-07-22T11:42:19;31.20;;;17.55;;
62459;SDS011;48510;39.364;-9.378;2022-07-22T11:44:20;31.92;;;17.40;;
62459;SDS011;48510;39.364;-9.378;2022-07-22T11:46:22;31.73;;;17.45;;
62459;SDS011;48510;39.364;-9.378;2022-07-22T11:48:25;32.63;;;18.77;;
62459;SDS011;48510;39.364;-9.378;2022-07-22T11:50:30;32.35;;;18.00;;
62459;SDS011;48510;39.364;-9.378;2022-07-22T11:52:31;29.77;;;17.45;;
62459;SDS011;48510;39.364;-9.378;2022-07-22T11:54:32;36.33;;;18.55;;
62459;SDS011;48510;39.364;-9.378;2022-07-22T11:56:33;32.85;;;17.55;;
62459;SDS011;48510;39.364;-9.378;2022-07-22T12:00:46;30.65;;;18.05;;
62459;SDS011;48510;39.364;-9.378;2022-07-22T12:02:46;33.00;;;18.17;;
62459;SDS011;48510;39.364;-9.378;2022-07-22T12:04:47;31.83;;;17.40;;
62459;SDS011;48510;39.364;-9.378;2022-07-22T12:06:49;34.35;;;19.08;;
62459;SDS011;48510;39.364;-9.378;2022-07-22T12:08:54;30.90;;;17.80;;
62459;SDS011;48510;39.364;-9.378;2022-07-22T12:10:56;31.52;;;19.10;;
62459;SDS011;48510;39.364;-9.378;2022-07-22T12:12:58;39.53;;;20.60;;
62459;SDS011;48510;39.364;-9.378;2022-07-22T12:14:58;38.63;;;19.30;;